Grand Cayman, Cayman Islands

4:47 PM EST on September 02, 2015 (GMT -0500)
Cayman Retreat | | Change Station
CLOSE
Current Station
Personal Weather Station
Location: George Town,
Elevation: 6 ft
Nearby Weather Stations

Elev 6 ft 19.27 °N, 81.39 °W | Updated 14 seconds ago

Scattered Clouds
Scattered Clouds
84.0 °F
Feels Like 93 °F
N
1.3
Wind Variable Wind from NW
Gusts 1.3 mph

Today
High -- | Low -- °F
--% Chance of Precip.
Yesterday
High -- | Low -- °F
Precip. -- in
6:10 AM 6:39 PM
Waning Gibbous, 77% visible
Pressure 29.95 in
Visibility 6.2 miles
Clouds Scattered Clouds 1600 ft
Heat Index 93 °F
Dew Point 76 °F
Humidity 78%
Rainfall 0.00 in
Snow Depth Not available.
UV 5 out of 12
Pollen Not available.
Air Quality Not available.
Flu Activity Not available.
METAR MWCR 022100Z 14004KT 110V190 9999 SCT016CB 31/26 Q1014 NOSIG
Pressure 29.95 in
Visibility 6.2 miles
Clouds Scattered Clouds 1600 ft
Heat Index 93 °F
Dew Point 76 °F
Humidity 78%
Rainfall 0.00 in
Snow Depth Not available.
UV 5 out of 12
Pollen Not available.
Air Quality Not available.
Flu Activity Not available.
METAR MWCR 022100Z 14004KT 110V190 9999 SCT016CB 31/26 Q1014 NOSIG

10-Day Weather Forecast

×

Almanac

Astronomy

Sep. 02, 2015 Rise Set
Actual Time
Civil Twilight
Nautical Twilight
Astronomical Twilight
Moon
Length of Visible Light
Length of Day
Tomorrow will be .
, % of the Moon is Illuminated

Today's Extremes

Country Highs Country Lows

Community

WunderPhotos

Upload Photos

1,851,818 photos uploaded!

WunderBlogs® & News

Nearby

Air Quality

  Air Quality AQ Index Pollutant
Not available.

Snow Depth

Station Depth Elevation

Earthquake Activity

City Distance Mag. Time & Date
Minimum magnitude displayed is 2.5.

Coastal Water Temperatures

Place Temperature

Stations

Nearby Weather Stations

Station Location Temp. Windchill Dew Point Humidity Wind Precip. Elev Updated Type